createdAt,value
2023-04-02T00:01:31.916Z,8.33
2023-04-02T00:04:09.128Z,8.27
2023-04-02T00:06:45.816Z,8.26
2023-04-02T00:09:34.285Z,8.25
2023-04-02T00:12:17.006Z,8.27
2023-04-02T00:14:53.856Z,8.21
2023-04-02T00:17:28.248Z,8.19
2023-04-02T00:20:06.881Z,8.17
2023-04-02T00:22:47.704Z,8.17
2023-04-02T00:25:20.668Z,8.17
2023-04-02T00:27:53.677Z,8.17
2023-04-02T00:30:26.821Z,8.16
2023-04-02T00:33:02.097Z,8.17
2023-04-02T00:35:40.533Z,8.17
2023-04-02T00:38:21.423Z,8.17
2023-04-02T00:40:57.595Z,8.12
2023-04-02T00:43:33.580Z,8.12
2023-04-02T00:46:15.911Z,8.12
2023-04-02T00:48:57.245Z,8.11
2023-04-02T00:51:36.459Z,8.09
2023-04-02T00:54:15.797Z,8.07
2023-04-02T00:56:51.791Z,8.02
2023-04-02T00:59:29.741Z,7.97
2023-04-02T01:02:26.504Z,7.99
2023-04-02T01:05:03.553Z,7.95
2023-04-02T01:07:52.632Z,7.96
2023-04-02T01:10:37.970Z,7.92
2023-04-02T01:13:22.399Z,7.87
2023-04-02T01:16:04.312Z,7.84
2023-04-02T01:18:56.918Z,7.82
2023-04-02T01:21:42.255Z,7.78
2023-04-02T01:24:16.121Z,7.74
2023-04-02T01:26:57.653Z,7.78
2023-04-02T01:29:34.420Z,7.65
2023-04-02T01:32:11.382Z,7.59
2023-04-02T01:34:46.903Z,7.56
2023-04-02T01:37:34.229Z,7.51
2023-04-02T01:40:17.293Z,7.48
2023-04-02T01:42:57.444Z,7.44
2023-04-02T01:45:32.314Z,7.42
2023-04-02T01:48:08.093Z,7.41
2023-04-02T01:50:42.133Z,7.37
2023-04-02T01:53:17.597Z,7.33
2023-04-02T01:55:52.559Z,7.31
2023-04-02T01:58:28.096Z,7.29
2023-04-02T02:01:07.283Z,7.27
2023-04-02T02:03:43.702Z,7.23
2023-04-02T02:06:19.778Z,7.21
2023-04-02T02:08:56.727Z,7.20
2023-04-02T02:11:31.837Z,7.18
2023-04-02T02:14:12.857Z,7.18
2023-04-02T02:16:48.498Z,7.17
2023-04-02T02:19:27.551Z,7.18
2023-04-02T02:22:10.171Z,7.19
2023-04-02T02:24:43.458Z,7.18
2023-04-02T02:27:47.193Z,7.22
2023-04-02T02:30:25.663Z,7.16
2023-04-02T02:33:06.659Z,7.16
2023-04-02T02:35:45.490Z,7.16
2023-04-02T02:38:45.145Z,7.18
2023-04-02T02:41:32.757Z,7.09
2023-04-02T02:44:15.510Z,7.08
2023-04-02T02:46:53.311Z,7.04
2023-04-02T02:49:31.324Z,7.02
2023-04-02T02:52:16.199Z,7.03
2023-04-02T02:55:04.497Z,7.01
2023-04-02T02:57:52.730Z,7.00
2023-04-02T03:00:27.484Z,7.00
2023-04-02T03:03:05.108Z,7.02
2023-04-02T03:05:41.571Z,7.03
2023-04-02T03:08:30.425Z,7.02
2023-04-02T03:11:12.174Z,6.96
2023-04-02T03:13:50.618Z,6.94
2023-04-02T03:16:29.869Z,6.92
2023-04-02T03:19:10.007Z,6.95
2023-04-02T03:21:50.031Z,6.98
2023-04-02T03:24:35.913Z,7.00
2023-04-02T03:27:13.728Z,7.07
2023-04-02T03:30:05.259Z,6.91
2023-04-02T03:32:42.655Z,6.88
2023-04-02T03:35:23.527Z,6.87
2023-04-02T03:38:03.811Z,6.88
2023-04-02T03:40:42.026Z,6.88
2023-04-02T03:43:22.833Z,6.90
2023-04-02T03:46:01.548Z,6.89
2023-04-02T03:48:40.687Z,6.86
2023-04-02T03:51:19.191Z,6.81
2023-04-02T03:53:53.717Z,6.76
2023-04-02T03:56:31.608Z,6.75
2023-04-02T03:59:14.483Z,6.71
2023-04-02T04:01:54.949Z,6.69
2023-04-02T04:04:31.701Z,6.67
2023-04-02T04:07:05.025Z,6.64
2023-04-02T04:09:42.639Z,6.61
2023-04-02T04:12:26.695Z,6.59
2023-04-02T04:15:06.661Z,6.54
2023-04-02T04:17:54.106Z,6.54
2023-04-02T04:20:37.753Z,6.50
2023-04-02T04:23:18.148Z,6.48
2023-04-02T04:25:58.686Z,6.50
2023-04-02T04:28:39.323Z,6.49
2023-04-02T04:31:22.821Z,6.46
2023-04-02T04:34:05.187Z,6.43
2023-04-02T04:36:48.005Z,6.42
2023-04-02T04:39:29.709Z,6.41
2023-04-02T04:42:06.898Z,6.38
2023-04-02T04:44:45.439Z,6.36
2023-04-02T04:47:25.335Z,6.30
2023-04-02T04:50:04.982Z,6.29
2023-04-02T04:52:44.459Z,6.28
2023-04-02T04:55:38.278Z,6.30
2023-04-02T04:58:22.350Z,6.26
2023-04-02T05:01:04.606Z,6.24
2023-04-02T05:03:44.542Z,6.18
2023-04-02T05:06:33.722Z,6.14
2023-04-02T05:09:17.770Z,6.11
2023-04-02T05:11:54.635Z,6.12
2023-04-02T05:14:36.523Z,6.15
2023-04-02T05:17:17.843Z,6.13
2023-04-02T05:19:56.896Z,6.17
2023-04-02T05:22:40.162Z,6.22
2023-04-02T05:25:30.402Z,6.25
2023-04-02T05:28:14.390Z,6.26
2023-04-02T05:30:53.621Z,6.28
2023-04-02T05:33:30.925Z,6.28
2023-04-02T05:36:11.622Z,6.28
2023-04-02T05:38:54.730Z,6.24
2023-04-02T05:41:44.909Z,6.19
2023-04-02T05:44:29.669Z,6.17
2023-04-02T05:47:09.151Z,6.17
2023-04-02T05:49:46.851Z,6.12
2023-04-02T05:52:24.420Z,6.10
2023-04-02T05:55:00.810Z,6.06
2023-04-02T05:57:45.836Z,6.04
2023-04-02T06:00:45.675Z,6.04
2023-04-02T06:03:29.756Z,6.06
2023-04-02T06:06:14.204Z,6.09
2023-04-02T06:08:55.708Z,6.12
2023-04-02T06:11:33.990Z,6.14
2023-04-02T06:14:11.212Z,6.11
2023-04-02T06:16:45.930Z,6.08
2023-04-02T06:19:26.830Z,6.05
2023-04-02T06:22:16.620Z,6.06
2023-04-02T06:24:56.997Z,6.01
2023-04-02T06:27:31.284Z,6.00
2023-04-02T06:30:11.769Z,6.00
2023-04-02T06:32:45.443Z,6.03
2023-04-02T06:35:21.040Z,6.08
2023-04-02T06:38:06.170Z,6.15
2023-04-02T06:40:43.607Z,6.22
2023-04-02T06:43:33.401Z,6.29
2023-04-02T06:46:32.498Z,6.32
2023-04-02T06:49:16.349Z,6.32
2023-04-02T06:51:54.574Z,6.31
2023-04-02T06:54:28.019Z,6.26
2023-04-02T06:57:15.349Z,6.24
2023-04-02T06:59:51.043Z,6.17
2023-04-02T07:02:32.373Z,6.16
2023-04-02T07:05:12.283Z,6.15
2023-04-02T07:07:53.983Z,6.13
2023-04-02T07:10:27.112Z,6.12
2023-04-02T07:13:02.445Z,6.10
2023-04-02T07:15:36.403Z,6.09
2023-04-02T07:18:23.052Z,6.09
2023-04-02T07:20:56.739Z,6.06
2023-04-02T07:23:31.845Z,6.00
2023-04-02T07:26:06.692Z,5.95
2023-04-02T07:28:39.808Z,5.95
2023-04-02T07:31:18.820Z,5.94
2023-04-02T07:33:52.519Z,5.93
2023-04-02T07:36:26.329Z,5.92
2023-04-02T07:39:00.882Z,5.91
2023-04-02T07:41:33.915Z,5.92
2023-04-02T07:44:08.198Z,5.92
2023-04-02T07:46:41.491Z,5.89
2023-04-02T07:49:14.555Z,5.92
2023-04-02T07:51:47.608Z,5.96
2023-04-02T07:54:23.301Z,6.00
2023-04-02T07:56:59.109Z,6.06
2023-04-02T07:59:32.151Z,6.09
2023-04-02T08:02:06.034Z,6.12
2023-04-02T08:04:39.161Z,6.16
2023-04-02T08:07:12.352Z,6.18
2023-04-02T08:09:46.782Z,6.23
2023-04-02T08:12:19.870Z,6.26
2023-04-02T08:14:52.940Z,6.29
2023-04-02T08:17:26.902Z,6.31
2023-04-02T08:20:01.042Z,6.45
2023-04-02T08:22:34.045Z,6.39
2023-04-02T08:25:09.581Z,6.41
2023-04-02T08:27:43.032Z,6.46
2023-04-02T08:30:16.515Z,6.54
2023-04-02T08:32:49.595Z,6.59
2023-04-02T08:35:23.583Z,6.62
2023-04-02T08:37:56.569Z,6.65
2023-04-02T08:40:36.238Z,6.70
2023-04-02T08:43:28.920Z,6.71
2023-04-02T08:49:15.646Z,6.75
2023-04-02T08:51:48.798Z,6.75
2023-04-02T08:54:27.819Z,6.72
2023-04-02T08:57:08.029Z,6.66
2023-04-02T08:59:43.105Z,6.65
2023-04-02T09:02:28.759Z,6.64
2023-04-02T09:05:06.072Z,6.62
2023-04-02T09:07:39.238Z,6.62
2023-04-02T09:10:15.113Z,6.64
2023-04-02T09:12:53.459Z,6.67
2023-04-02T09:15:35.199Z,6.68
2023-04-02T09:18:16.152Z,6.68
2023-04-02T09:20:50.137Z,6.61
2023-04-02T09:23:27.066Z,6.56
2023-04-02T09:26:04.591Z,6.52
2023-04-02T09:28:39.869Z,6.54
2023-04-02T09:31:20.760Z,6.55
2023-04-02T09:33:54.771Z,6.52
2023-04-02T09:36:35.766Z,6.50
2023-04-02T09:39:18.615Z,6.51
2023-04-02T09:42:04.564Z,6.48
2023-04-02T09:44:39.733Z,6.52
2023-04-02T09:47:28.867Z,6.64
2023-04-02T09:50:28.895Z,6.69
2023-04-02T09:53:42.446Z,6.74
2023-04-02T09:56:21.737Z,6.70
2023-04-02T09:59:06.238Z,6.69
2023-04-02T10:01:42.879Z,6.60
2023-04-02T10:04:37.622Z,6.58
2023-04-02T10:07:32.435Z,6.62
2023-04-02T10:10:20.108Z,6.64
2023-04-02T10:12:59.432Z,6.65
2023-04-02T10:15:36.415Z,6.67
2023-04-02T10:18:16.849Z,6.67
2023-04-02T10:20:53.758Z,6.67
2023-04-02T10:23:34.739Z,6.68
2023-04-02T10:26:57.231Z,6.80
2023-04-02T10:29:53.503Z,6.90
2023-04-02T10:32:33.392Z,7.05
2023-04-02T10:35:16.939Z,7.17
2023-04-02T10:38:22.605Z,7.28
2023-04-02T10:41:01.406Z,7.30
2023-04-02T10:44:16.633Z,7.38
2023-04-02T10:47:09.329Z,7.36
2023-04-02T10:49:49.795Z,7.30
2023-04-02T10:52:30.416Z,7.23
2023-04-02T10:55:08.770Z,7.20
2023-04-02T10:57:43.302Z,7.21
2023-04-02T11:00:23.512Z,7.22
2023-04-02T11:03:11.445Z,7.22
2023-04-02T11:05:47.901Z,7.22
2023-04-02T11:08:26.159Z,7.19
2023-04-02T11:11:11.910Z,7.21
2023-04-02T11:13:54.498Z,7.21
2023-04-02T11:16:28.635Z,7.23
2023-04-02T11:19:27.970Z,7.24
2023-04-02T11:22:06.868Z,7.16
2023-04-02T11:24:46.119Z,7.13
2023-04-02T11:27:30.393Z,7.12
2023-04-02T11:30:14.087Z,7.06
2023-04-02T11:32:49.666Z,7.05
2023-04-02T11:35:37.534Z,7.01
2023-04-02T11:38:52.244Z,7.00
2023-04-02T11:42:03.378Z,6.94
2023-04-02T11:44:36.392Z,6.85
2023-04-02T11:47:20.609Z,6.83
2023-04-02T11:50:26.272Z,6.85
2023-04-02T11:53:03.605Z,6.81
2023-04-02T11:55:38.132Z,6.83
2023-04-02T11:58:39.255Z,6.85
2023-04-02T12:01:50.650Z,6.89
2023-04-02T12:04:47.151Z,6.88
2023-04-02T12:07:58.364Z,6.81
2023-04-02T12:10:34.841Z,6.73
2023-04-02T12:13:19.668Z,6.71
2023-04-02T12:15:54.138Z,6.67
2023-04-02T12:18:27.228Z,6.65
2023-04-02T12:21:00.326Z,6.64
2023-04-02T12:23:36.488Z,6.62
2023-04-02T12:26:30.249Z,6.63
2023-04-02T12:29:24.244Z,6.69
2023-04-02T12:32:00.959Z,6.78
2023-04-02T12:34:34.649Z,6.82
2023-04-02T12:37:23.953Z,6.87
2023-04-02T12:39:59.749Z,6.87
2023-04-02T12:42:34.831Z,6.89
2023-04-02T12:45:09.123Z,6.89
2023-04-02T12:47:47.101Z,6.93
2023-04-02T12:50:22.993Z,6.96
2023-04-02T12:52:59.036Z,7.00
2023-04-02T12:55:33.581Z,7.05
2023-04-02T12:58:29.882Z,7.11
2023-04-02T13:01:18.649Z,7.12
2023-04-02T13:04:04.972Z,7.15
2023-04-02T13:06:38.531Z,7.08
2023-04-02T13:09:30.994Z,7.07
2023-04-02T13:12:04.348Z,6.95
2023-04-02T13:14:37.977Z,6.85
2023-04-02T13:17:42.332Z,6.80
2023-04-02T13:20:34.555Z,6.76
2023-04-02T13:23:32.260Z,6.74
2023-04-02T13:26:17.206Z,6.66
2023-04-02T13:28:58.022Z,6.67
2023-04-02T13:31:33.729Z,6.64
2023-04-02T13:34:07.114Z,6.60
2023-04-02T13:36:41.656Z,6.53
2023-04-02T13:39:15.377Z,6.50
2023-04-02T13:41:51.052Z,6.49
2023-04-02T13:44:25.962Z,6.42
2023-04-02T13:47:00.149Z,6.39
2023-04-02T13:49:33.373Z,6.41
2023-04-02T13:52:15.300Z,6.43
2023-04-02T13:54:50.823Z,6.40
2023-04-02T13:57:23.926Z,6.39
2023-04-02T13:59:57.023Z,6.38
2023-04-02T14:02:30.563Z,6.33
2023-04-02T14:05:13.779Z,6.29
2023-04-02T14:08:00.139Z,6.22
2023-04-02T14:10:54.284Z,6.17
2023-04-02T14:13:48.917Z,6.08
2023-04-02T14:16:33.177Z,5.98
2023-04-02T14:19:23.384Z,5.90
2023-04-02T14:22:09.870Z,5.78
2023-04-02T14:24:53.485Z,5.70
2023-04-02T14:27:39.072Z,5.61
2023-04-02T14:30:19.157Z,5.52
2023-04-02T14:32:59.555Z,5.45
2023-04-02T14:35:36.337Z,5.36
2023-04-02T14:38:18.290Z,5.28
2023-04-02T14:40:58.332Z,5.22
2023-04-02T14:43:38.119Z,5.17
2023-04-02T14:46:11.626Z,5.09
2023-04-02T14:48:50.446Z,5.07
2023-04-02T14:51:30.990Z,5.02
2023-04-02T14:54:12.224Z,4.97
2023-04-02T14:56:50.244Z,4.96
2023-04-02T14:59:30.006Z,4.94
2023-04-02T15:02:08.776Z,4.91
2023-04-02T15:04:47.069Z,4.85
2023-04-02T15:07:24.035Z,4.83
2023-04-02T15:10:07.430Z,4.79
2023-04-02T15:12:43.244Z,4.75
2023-04-02T15:15:36.991Z,4.74
2023-04-02T15:18:14.506Z,4.70
2023-04-02T15:20:58.409Z,4.69
2023-04-02T15:23:44.174Z,4.68
2023-04-02T15:26:23.829Z,4.65
2023-04-02T15:29:06.325Z,4.63
2023-04-02T15:31:44.655Z,4.61
2023-04-02T15:34:28.234Z,4.59
2023-04-02T15:37:18.466Z,4.60
2023-04-02T15:40:15.691Z,4.64
2023-04-02T15:43:02.338Z,4.63
2023-04-02T15:45:50.223Z,4.61
2023-04-02T15:49:02.066Z,4.60
2023-04-02T15:51:58.013Z,4.54
2023-04-02T15:54:49.558Z,4.48
2023-04-02T15:57:41.980Z,4.45
2023-04-02T16:00:26.521Z,4.42
2023-04-02T16:03:28.700Z,4.46
2023-04-02T16:06:26.390Z,4.47
2023-04-02T16:09:13.337Z,4.46
2023-04-02T16:11:46.735Z,4.49
2023-04-02T16:14:27.833Z,4.49
2023-04-02T16:17:17.567Z,4.47
2023-04-02T16:19:54.647Z,4.46
2023-04-02T16:22:35.360Z,4.46
2023-04-02T16:25:19.127Z,4.48
2023-04-02T16:28:01.409Z,4.49
2023-04-02T16:30:47.969Z,4.55
2023-04-02T16:33:35.880Z,4.57
2023-04-02T16:36:23.986Z,4.61
2023-04-02T16:39:37.752Z,4.66
2023-04-02T16:42:31.964Z,4.70
2023-04-02T16:45:22.376Z,4.83
2023-04-02T16:48:16.688Z,4.77
2023-04-02T16:51:00.614Z,4.78
2023-04-02T16:54:02.268Z,4.83
2023-04-02T16:56:59.015Z,4.85
2023-04-02T16:59:47.383Z,4.85
2023-04-02T17:02:40.227Z,4.88
2023-04-02T17:05:33.846Z,4.87
2023-04-02T17:08:20.301Z,4.87
2023-04-02T17:11:17.448Z,4.93
2023-04-02T17:14:06.586Z,4.88
2023-04-02T17:16:45.796Z,4.89
2023-04-02T17:19:23.558Z,4.87
2023-04-02T17:22:03.483Z,4.84
2023-04-02T17:24:45.133Z,4.84
2023-04-02T17:27:26.404Z,4.84
2023-04-02T17:30:07.070Z,4.86
2023-04-02T17:32:41.177Z,4.87
2023-04-02T17:35:21.942Z,4.88
2023-04-02T17:38:06.764Z,4.89
2023-04-02T17:40:49.653Z,4.93
2023-04-02T17:43:37.792Z,4.95
2023-04-02T17:46:21.787Z,4.94
2023-04-02T17:49:03.528Z,4.91
2023-04-02T17:51:46.556Z,4.90
2023-04-02T17:54:37.206Z,4.94
2023-04-02T17:57:25.088Z,4.94
2023-04-02T18:00:21.201Z,4.98
2023-04-02T18:03:29.935Z,4.98
2023-04-02T18:06:15.262Z,5.00
2023-04-02T18:09:04.986Z,5.03
2023-04-02T18:11:49.519Z,5.04
2023-04-02T18:14:43.462Z,5.07
2023-04-02T18:17:27.301Z,5.06
2023-04-02T18:20:11.167Z,5.02
2023-04-02T18:22:52.051Z,4.96
2023-04-02T18:25:35.913Z,4.88
2023-04-02T18:28:37.254Z,4.86
2023-04-02T18:31:19.812Z,4.80
2023-04-02T18:34:13.293Z,4.80
2023-04-02T18:36:56.889Z,4.80
2023-04-02T18:39:46.494Z,4.81
2023-04-02T18:42:33.108Z,4.79
2023-04-02T18:45:15.139Z,4.73
2023-04-02T18:47:59.818Z,4.67
2023-04-02T18:50:37.038Z,4.61
2023-04-02T18:53:14.491Z,4.57
2023-04-02T18:55:55.251Z,4.51
2023-04-02T18:58:35.103Z,4.43
2023-04-02T19:01:11.123Z,4.35
2023-04-02T19:03:50.291Z,4.30
2023-04-02T19:06:28.363Z,4.28
2023-04-02T19:09:10.086Z,4.31
2023-04-02T19:11:43.285Z,4.33
2023-04-02T19:14:19.415Z,4.37
2023-04-02T19:17:02.836Z,4.42
2023-04-02T19:19:44.199Z,4.42
2023-04-02T19:22:31.553Z,4.43
2023-04-02T19:25:35.965Z,4.48
2023-04-02T19:28:14.400Z,4.44
2023-04-02T19:31:02.664Z,4.47
2023-04-02T19:33:43.520Z,4.48
2023-04-02T19:36:36.708Z,4.52
2023-04-02T19:39:34.955Z,4.52
2023-04-02T19:42:20.214Z,4.47
2023-04-02T19:44:55.236Z,4.47
2023-04-02T19:47:28.518Z,4.51
2023-04-02T19:50:03.454Z,4.57
2023-04-02T19:52:36.573Z,4.64
2023-04-02T19:55:11.359Z,4.70
2023-04-02T19:57:44.584Z,4.73
2023-04-02T20:00:18.841Z,4.77
2023-04-02T20:02:52.046Z,4.81
2023-04-02T20:05:25.245Z,4.82
2023-04-02T20:07:58.432Z,4.85
2023-04-02T20:10:37.264Z,4.91
2023-04-02T20:13:10.572Z,4.94
2023-04-02T20:15:43.557Z,4.97
2023-04-02T20:18:16.579Z,4.99
2023-04-02T20:20:50.318Z,5.02
2023-04-02T20:23:23.788Z,5.02
2023-04-02T20:25:58.840Z,5.00
2023-04-02T20:28:32.328Z,5.03
2023-04-02T20:31:10.261Z,5.02
2023-04-02T20:33:44.295Z,5.00
2023-04-02T20:36:18.781Z,4.98
2023-04-02T20:38:52.637Z,4.99
2023-04-02T20:41:27.497Z,5.12
2023-04-02T20:44:01.052Z,5.02
2023-04-02T20:46:34.209Z,5.02
2023-04-02T20:49:07.571Z,5.03
2023-04-02T20:51:40.559Z,5.03
2023-04-02T20:54:13.612Z,5.02
2023-04-02T20:56:48.036Z,4.99
2023-04-02T20:59:21.046Z,4.98
2023-04-02T21:01:54.135Z,5.00
2023-04-02T21:04:28.800Z,4.97
2023-04-02T21:07:01.849Z,4.95
2023-04-02T21:09:36.859Z,4.91
2023-04-02T21:12:14.696Z,4.89
2023-04-02T21:14:48.589Z,4.87
2023-04-02T21:17:21.364Z,4.98
2023-04-02T21:19:54.349Z,4.87
2023-04-02T21:22:27.324Z,4.86
2023-04-02T21:25:00.338Z,4.86
2023-04-02T21:27:35.146Z,4.85
2023-04-02T21:30:12.627Z,4.86
2023-04-02T21:32:47.228Z,4.87
2023-04-02T21:35:20.285Z,4.89
2023-04-02T21:37:53.262Z,4.87
2023-04-02T21:40:26.216Z,4.86
2023-04-02T21:43:00.636Z,4.84
2023-04-02T21:45:36.409Z,4.82
2023-04-02T21:48:09.609Z,4.80
2023-04-02T21:50:42.612Z,4.80
2023-04-02T21:53:15.574Z,4.80
2023-04-02T21:55:48.555Z,4.80
2023-04-02T21:58:22.925Z,4.79
2023-04-02T22:00:55.954Z,4.79
2023-04-02T22:03:31.834Z,4.76
2023-04-02T22:06:08.160Z,4.72
2023-04-02T22:08:43.045Z,4.66
2023-04-02T22:11:17.798Z,4.60
2023-04-02T22:13:52.411Z,4.57
2023-04-02T22:16:27.235Z,4.51
2023-04-02T22:19:02.448Z,4.48
2023-04-02T22:21:36.860Z,4.47
2023-04-02T22:24:14.413Z,4.45
2023-04-02T22:26:47.898Z,4.44
2023-04-02T22:29:22.472Z,4.43
2023-04-02T22:31:55.520Z,4.40
2023-04-02T22:34:28.820Z,4.39
2023-04-02T22:37:01.831Z,4.37
2023-04-02T22:39:34.831Z,4.33
2023-04-02T22:42:08.024Z,4.31
2023-04-02T22:44:42.456Z,4.30
2023-04-02T22:47:15.849Z,4.27
2023-04-02T22:49:48.901Z,4.26
2023-04-02T22:52:21.864Z,4.21
2023-04-02T22:54:55.962Z,4.17
2023-04-02T22:57:29.411Z,4.13
2023-04-02T23:00:04.834Z,4.10
2023-04-02T23:02:38.025Z,4.06
2023-04-02T23:05:11.800Z,3.99
2023-04-02T23:07:44.922Z,3.94
2023-04-02T23:10:19.427Z,3.88
2023-04-02T23:12:52.408Z,3.83
2023-04-02T23:15:26.803Z,3.76
2023-04-02T23:17:59.833Z,3.71
2023-04-02T23:20:32.844Z,3.64
2023-04-02T23:23:06.332Z,3.57
2023-04-02T23:25:41.233Z,3.50
2023-04-02T23:28:14.797Z,3.42
2023-04-02T23:30:49.202Z,3.37
2023-04-02T23:33:22.227Z,3.31
2023-04-02T23:35:55.241Z,3.25
2023-04-02T23:38:28.493Z,3.21
2023-04-02T23:41:01.457Z,3.15
2023-04-02T23:43:34.470Z,3.08
2023-04-02T23:46:08.899Z,3.03
2023-04-02T23:48:41.973Z,2.97
2023-04-02T23:51:15.452Z,2.90
2023-04-02T23:53:48.520Z,2.85
2023-04-02T23:56:21.848Z,2.81
2023-04-02T23:58:54.929Z,2.79
